Flight Track Log - Related Links

Times and Time Zones

All times are in EDT time to prevent confusion due to time zone crossing. See the FIV521 flight status page for this flight to view local times or setup timezone preferences in your user account.

Time Position Orientation Groundspeed Altitude Reporting Facility
EDT Latitude Longitude Course Direction KTS MPH feet Rate Location/Type
Thu 09:46:06 AM 45.5025 -94.1181 280° West 263 303 4,200  Level Minneapolis Center
Thu 09:47:08 AM 45.5142 -94.2172 280° West 256 295 6,700 2,855 Climbing Minneapolis Center
Thu 09:48:10 AM 45.5264 -94.3467 278° West 274 315 10,100 2,758 Climbing Minneapolis Center
Thu 09:49:12 AM 45.5339 -94.4578 276° West 279 321 12,400 2,032 Climbing Minneapolis Center
Thu 09:50:14 AM 45.5439 -94.5756 277° West 292 336 14,300 2,081 Climbing Minneapolis Center
Thu 09:51:16 AM 45.5533 -94.6981 276° West 306 352 16,700 1,867 Climbing Minneapolis Center
Thu 09:52:29 AM 45.5642 -94.8211 277° West 311 358 18,500 1,897 Climbing Minneapolis Center
Thu 09:53:32 AM 45.5756 -94.9744 276° West 321 369 21,000 2,160 Climbing Minneapolis Center
Thu 09:54:34 AM 45.5853 -95.1133 276° West 331 381 23,000 1,935 Climbing Minneapolis Center
Thu 09:55:36 AM 45.5975 -95.2736 276° West 339 390 25,000 1,548 Climbing Minneapolis Center
Thu 09:56:38 AM 45.6058 -95.3850 276° West 348 400 26,200 1,645 Climbing Minneapolis Center
Thu 09:57:40 AM 45.6186 -95.5517 276° West 354 407 28,400 1,984 Climbing Minneapolis Center
Thu 09:58:42 AM 45.6278 -95.6864 276° West 345 397 30,300 1,839 Climbing Minneapolis Center
Thu 09:59:44 AM 45.6336 -95.8189 274° West 338 389 32,200 1,984 Climbing Minneapolis Center
Thu 10:00:46 AM 45.6450 -95.9403 278° West 312 359 34,400 1,887 Climbing Minneapolis Center
Thu 10:01:48 AM 45.6558 -96.0806 276° West 298 343 36,100 1,403 Climbing Minneapolis Center
Thu 10:02:50 AM 45.6636 -96.1947 276° West 291 335 37,300 919 Climbing Minneapolis Center
Thu 10:03:52 AM 45.6708 -96.3094 275° West 290 334 38,000 339 Climbing Minneapolis Center
Thu 10:04:54 AM 45.6794 -96.4300 276° West 302 348 38,000  Level Minneapolis Center
Thu 10:05:57 AM 45.6875 -96.5622 275° West 327 376 38,000  Level Minneapolis Center
Thu 10:06:59 AM 45.6978 -96.7269 275° West 344 396 38,000  Level Minneapolis Center
Thu 10:08:01 AM 45.7064 -96.8686 275° West 354 407 38,000  Level Minneapolis Center
Thu 10:09:03 AM 45.7142 -97.0097 275° West 357 411 38,000  Level Minneapolis Center
Thu 10:10:05 AM 45.7222 -97.1525 275° West 360 414 38,000  Level Minneapolis Center
Thu 10:11:07 AM 45.7308 -97.2922 275° West 357 411 38,000  Level Minneapolis Center
Thu 10:12:09 AM 45.7383 -97.4331 274° West 356 410 38,000  Level Minneapolis Center
Thu 10:13:11 AM 45.7475 -97.6019 275° West 356 410 38,000  Level Minneapolis Center
Thu 10:14:13 AM 45.7544 -97.7147 275° West 357 411 38,000  Level Minneapolis Center
Thu 10:15:15 AM 45.7622 -97.8811 274° West 352 405 38,000  Level Minneapolis Center
Thu 10:16:17 AM 45.7708 -98.0208 275° West 353 406 38,000  Level Minneapolis Center
Thu 10:17:19 AM 45.7808 -98.1833 275° West 354 407 38,000  Level Minneapolis Center
Thu 10:18:21 AM 45.7875 -98.3231 274° West 353 406 38,000  Level Minneapolis Center
Thu 10:19:23 AM 45.7914 -98.4619 272° West 351 404 38,000  Level Minneapolis Center
Thu 10:20:37 AM 45.7986 -98.6000 274° West 350 403 38,000  Level Minneapolis Center
Thu 10:21:40 AM 45.8053 -98.7672 273° West 351 404 38,000  Level Minneapolis Center
Thu 10:22:42 AM 45.8117 -98.9075 274° West 353 406 38,000  Level Minneapolis Center
Thu 10:23:44 AM 45.8186 -99.0756 273° West 353 406 38,000  Level Minneapolis Center
Thu 10:24:46 AM 45.8233 -99.2172 273° West 355 409 38,000  Level Minneapolis Center
Thu 10:25:48 AM 45.8294 -99.3575 274° West 355 409 38,000  Level Minneapolis Center
Thu 10:26:50 AM 45.8353 -99.4997 273° West 357 411 38,000  Level Minneapolis Center
Thu 10:27:52 AM 45.8403 -99.6428 273° West 359 413 38,000  Level Minneapolis Center
Thu 10:28:54 AM 45.8453 -99.7844 273° West 358 412 38,000  Level Minneapolis Center
Thu 10:29:56 AM 45.8506 -99.9558 273° West 360 414 38,000  Level Minneapolis Center
Thu 10:30:58 AM 45.8561 -100.0997 273° West 362 417 38,000  Level Minneapolis Center
Thu 10:32:00 AM 45.8597 -100.2439 272° West 363 418 38,000  Level Minneapolis Center
Thu 10:33:02 AM 45.8647 -100.3872 273° West 362 417 38,000  Level Minneapolis Center
Thu 10:34:04 AM 45.8683 -100.5306 272° West 362 417 38,000  Level Minneapolis Center
Thu 10:35:07 AM 45.8725 -100.7022 272° West 361 415 38,000  Level Minneapolis Center
Thu 10:36:09 AM 45.8778 -100.8483 273° West 366 421 38,000  Level Minneapolis Center
Thu 10:37:11 AM 45.8800 -100.9931 271° West 364 419 38,000  Level Minneapolis Center
Thu 10:38:13 AM 45.8828 -101.1367 272° West 363 418 38,000  Level Minneapolis Center
Thu 10:39:15 AM 45.8881 -101.2822 273° West 365 420 38,000  Level Minneapolis Center
Thu 10:40:17 AM 45.8911 -101.4281 272° West 366 421 38,000  Level Minneapolis Center
Thu 10:41:19 AM 45.8947 -101.6025 272° West 366 421 38,000  Level Minneapolis Center
Thu 10:42:21 AM 45.8969 -101.7506 271° West 368 423 38,000  Level Minneapolis Center
Thu 10:43:23 AM 45.8989 -101.8967 271° West 368 423 38,000  Level Minneapolis Center
Thu 10:44:25 AM 45.9028 -102.0125 273° West 367 422 38,000  Level Minneapolis Center
Thu 10:45:27 AM 45.9039 -102.1906 271° West 369 425 38,000  Level Minneapolis Center
Thu 10:46:29 AM 45.9064 -102.3367 271° West 369 425 38,000  Level Minneapolis Center
Thu 10:47:31 AM 45.9081 -102.5144 271° West 372 428 38,000  Level Minneapolis Center
Thu 10:48:33 AM 45.9089 -102.6314 271° West 370 426 38,000  Level Minneapolis Center
Thu 10:49:35 AM 45.9103 -102.7908 271° West 370 426 38,000  Level Minneapolis Center
Thu 10:50:37 AM 45.9114 -102.9678 271° West 370 426 38,000  Level Minneapolis Center
Thu 10:51:39 AM 45.9131 -103.1158 271° West 371 427 38,000  Level Minneapolis Center
Thu 10:52:42 AM 45.9128 -103.2628 270° West 371 427 38,000  Level Minneapolis Center
Thu 10:53:44 AM 45.9139 -103.4108 271° West 370 426 38,000  Level Minneapolis Center
Thu 10:54:46 AM 45.9131 -103.5583 270° West 370 426 38,000  Level Minneapolis Center
Thu 10:55:48 AM 45.9139 -103.7044 271° West 369 425 38,000  Level Minneapolis Center
Thu 10:56:50 AM 45.9139 -103.8822 270° West 371 427 38,000  Level Minneapolis Center
Thu 10:57:52 AM 45.9128 -104.0281 269° West 368 423 38,000  Level Minneapolis Center
Thu 10:58:54 AM 45.9131 -104.1756 270° West 368 423 38,000  Level Minneapolis Center
Thu 10:59:56 AM 45.9117 -104.3222 269° West 368 423 38,000  Level Minneapolis Center
Thu 11:00:58 AM 45.9106 -104.4703 269° West 370 426 38,000  Level Minneapolis Center
Thu 11:02:17 AM 45.9094 -104.6767 270° West 371 427 38,000  Level Salt Lake Center
Thu 11:03:19 AM 45.9086 -104.8236 270° West 370 426 38,000  Level Salt Lake Center
Thu 11:04:21 AM 45.9072 -104.9722 269° West 372 428 38,000  Level Salt Lake Center
Thu 11:05:23 AM 45.9058 -105.1192 269° West 372 428 38,000  Level Salt Lake Center
Thu 11:06:25 AM 45.8992 -105.2936 267° West 369 425 38,000  Level Salt Lake Center
Thu 11:07:27 AM 45.8972 -105.4403 269° West 368 423 38,000  Level Salt Lake Center
Thu 11:08:29 AM 45.8953 -105.5878 269° West 369 425 38,000  Level Salt Lake Center
Thu 11:09:31 AM 45.8911 -105.7344 268° West 370 426 38,000  Level Salt Lake Center
Thu 11:10:33 AM 45.8886 -105.8819 269° West 371 427 38,000  Level Salt Lake Center
Thu 11:11:36 AM 45.8856 -106.0281 268° West 369 425 38,000  Level Salt Lake Center
Thu 11:12:38 AM 45.8836 -106.2050 269° West 370 426 38,000  Level Salt Lake Center
Thu 11:13:40 AM 45.8811 -106.3511 269° West 369 425 38,000  Level Salt Lake Center
Thu 11:14:42 AM 45.8794 -106.4964 269° West 367 422 38,000  Level Salt Lake Center
Thu 11:15:44 AM 45.8761 -106.6422 268° West 367 422 38,000  Level Salt Lake Center
Thu 11:16:46 AM 45.8733 -106.7861 268° West 363 418 38,000 -48 Level Salt Lake Center
Thu 11:17:48 AM 45.8686 -106.9586 268° West 362 417 37,900 -629 Descending Salt Lake Center
Thu 11:18:50 AM 45.8636 -107.1014 267° West 360 414 36,700 -1,161 Descending Salt Lake Center
Thu 11:19:52 AM 45.8589 -107.2433 267° West 356 410 35,500 -1,210 Descending Salt Lake Center
Thu 11:20:54 AM 45.8553 -107.3878 268° West 362 417 34,200 -726 Descending Salt Lake Center
Thu 11:21:56 AM 45.8503 -107.5294 267° West 357 411 34,000 -97 Descending Salt Lake Center
Thu 11:22:58 AM 45.8453 -107.6747 267° West 367 422 34,000  Level Salt Lake Center
Thu 11:24:00 AM 45.8392 -107.8492 267° West 367 422 34,000  Level Salt Lake Center
Thu 11:25:02 AM 45.8339 -107.9950 267° West 368 423 34,000  Level Salt Lake Center
Thu 11:26:04 AM 45.8283 -108.1428 267° West 372 428 34,000  Level Salt Lake Center
Thu 11:27:06 AM 45.8225 -108.2886 267° West 368 423 34,000  Level Salt Lake Center
Thu 11:28:08 AM 45.8161 -108.4325 266° West 364 419 34,000 -97 Level Salt Lake Center
Thu 11:29:10 AM 45.8122 -108.6097 268° West 369 425 33,800 -629 Descending Salt Lake Center
Thu 11:30:12 AM 45.8083 -108.7650 268° West 374 430 32,700 -1,113 Descending Salt Lake Center
Thu 11:31:14 AM 45.8078 -108.9111 270° West 368 423 31,500 -1,113 Descending Salt Lake Center
Thu 11:32:16 AM 45.8078 -109.0556 270° West 365 420 30,400 -1,065 Descending Salt Lake Center
Thu 11:33:18 AM 45.8067 -109.2039 269° West 372 428 29,300 -1,065 Descending Salt Lake Center
Thu 11:34:20 AM 45.8056 -109.3558 269° West 382 440 28,200 -1,161 Descending Salt Lake Center
Thu 11:35:22 AM 45.8047 -109.5417 270° West 389 448 26,900 -1,258 Descending Salt Lake Center
Thu 11:36:24 AM 45.8031 -109.6989 269° West 395 455 25,600 -1,694 Descending Salt Lake Center
Thu 11:37:26 AM 45.8008 -109.8567 269° West 398 458 23,400 -2,129 Descending Salt Lake Center
Thu 11:38:28 AM 45.7981 -110.0194 269° West 407 468 21,200 -2,081 Descending Salt Lake Center
Thu 11:39:30 AM 45.7967 -110.1728 269° West 394 453 19,100 -1,935 Descending Salt Lake Center
Thu 11:40:32 AM 45.7944 -110.3175 269° West 373 429 17,200 -1,984 Descending Salt Lake Center
Thu 11:41:34 AM 45.7917 -110.4847 269° West 355 409 15,000 -1,935 Descending Salt Lake Center
Thu 11:42:36 AM 45.7889 -110.6217 268° West 348 400 13,200 -1,452 Descending Salt Lake Center
Thu 11:43:38 AM 45.7864 -110.7414 268° West 298 343 12,000 -581 Descending Salt Lake Center
Thu 11:44:40 AM 45.7844 -110.8408 268° West 257 296 12,000  Level Salt Lake Center
Thu 11:45:43 AM 45.8056 -110.9336 288° West 253 291 12,000  Level Salt Lake Center
Thu 11:46:45 AM 45.8367 -111.0208 297° West 252 290 12,000  Level Salt Lake Center

Login

Don't have an account? Register now (free) for customized features, flight alerts, and more!